Terminal Aerodrome Forecast
Issued by NWS

Home | Current Version | Previous Version | Text Only | Print | Product List | Glossary On
Versions: 1 2 3 4 5 6 7 8 9 10 11 12 13 14 15
000
FTUS41 KCAR 310550
TAFPQI
TAF
KPQI 310550Z 3106/0106 18005KT 6SM BR BKN070
     FM310800 18005KT 2SM BR BKN010
     FM311300 23006KT P6SM BKN035
     FM311700 24010G20KT P6SM SCT025 BKN070
     FM312100 27012KT P6SM SCT250
      AMD LTD TO CLD VIS AND WIND=

USA.gov is the U.S. government's official web portal to all federal, state and local government web resources and services.